Startpagina
METAR-TAF:

METAR-TAF

Vliegvelden :

Mwanza, Tanzania

breedte: 02-28S, lengte: 032-55E, hoogte: 1139 m

Actueel weer

Dit bericht is 1 uur en het 36 minuten geleden gemaakt, om 22:00 UTC
Weinig wind
Temperatuur 23°C
Vochtigheid 89%
Druk 1014 hPa
Zicht 10 km of meer
Weinig wolken op 1400 ft

METAR: HTMW 232200Z 00000KT 9999 FEW014 23/21 Q1014 NOSIG

Tijdstip: 02:36 (23:36 UTC)

Verwachting

Dit bericht is 6 uur en het 36 minuten geleden gemaakt, om 17:00 UTC
Verwachting geldig van 23 om 18 UTC tot 24 om 18 UTC
Wind 10 kt uit het noordnoordwesten
Weinig wolken op 2000 ft
Weinig wolken op 2100 ft, Cumulonimbus.
Gebroken wolken op 9000 ft
Tijdelijke
van 23 om 20 UTC tot 24 om 05 UTC
Wind kt uit het noorden
Wijzigt naar
van 24 om 07 UTC tot 24 om 10 UTC
Wind 10 kt uit het oostzuidoosten
Verspreide wolken op 2300 ft
Weinig wolken op 2400 ft, Cumulonimbus.

TAF: HTMW 231700Z 2318/2418 33010KT FEW020 FEW021CB BKN090 TEMPO 2320/2405 00000KT TS/RA BECMG 2407/2410 12010KT SCT023 FEW024CB

Waarnemingen en weersverwachtingen van meer dan 4000 vliegvelden (METAR en TAF).

De beschikbare stations zijn de gele en rode punten op de kaart.

Ga met uw muis naar het station om de naam te zien.

Klik dan om waarnemingen en weersverwachtingen te zien.

kaart wijzigen: klik op de groene knoppen met een zwart kruis om in te zoomen, op de groene knop met een streepje om uit te zoomen of op de groene pijlen voor aangrenzende kaarten.


METAR-TAF: